»·PEaware :: OPT991 KTNP-KSAN

OPT991 :: KTNP-KSAN

FLIGHT INFORMATION

Flight Status: Arrived
Operator:
Flight Options
More flights by this operator :: More flights under this callsign
Pilot: Mike D. (13097)
Aircraft: EMBRAER PHENOM 300
(E55P)
More flights by this aircraft type
Origin: KTNP Twentynine Palms
United States
Destination: KSAN San Diego Intl-Lindbergh
United States
More flights between these airports :: More routes between these airports
Route: +TNP V514 CANNO
File this flight plan on PilotEdge
Remarks:
Altitude:
(Current/Filed)
16,000ft
Speed:
(Current/Filed)
400kts
Departed: 01-Oct-18 01:06 PM
Arrived: 01-Oct-18 01:37 PM
Distance/Time
Traveled:
104nm/0:31
Distance/Time
To Go:
Arrived

Flight Plot

Page will automatically refresh every two minutes.

Flight plan parsing failed; only flown route is shown


Map Options




Map Legend


Flown Route
Filed Route
Departure Airport
Arrival Airport
Navaid (VOR, NDB)
Fix

Horizontal Profiles

Position Reports

Time Latitude Longitude Heading Altitude Ground
Speed
01-Oct-18 12:23 34.135878 -115.944841 359 1890ft 0kts
01-Oct-18 12:24 34.135878 -115.944841 359 1890ft 0kts
01-Oct-18 12:25 34.135878 -115.944841 359 1890ft 0kts
01-Oct-18 12:26 34.135878 -115.944841 359 1890ft 0kts
01-Oct-18 12:27 34.135878 -115.944841 359 1890ft 0kts
01-Oct-18 12:28 34.135878 -115.944841 359 1890ft 0kts
01-Oct-18 12:29 34.135878 -115.944841 359 1890ft 0kts
01-Oct-18 12:30 34.135878 -115.944841 359 1890ft 0kts
01-Oct-18 12:31 34.135879 -115.944841 359 1890ft 0kts
01-Oct-18 12:32 34.135882 -115.944841 359 1890ft 0kts
01-Oct-18 12:33 34.135884 -115.944841 359 1890ft 0kts
01-Oct-18 12:34 34.135887 -115.944841 359 1890ft 0kts
01-Oct-18 12:35 34.135889 -115.944841 359 1890ft 0kts
01-Oct-18 12:36 34.135891 -115.944841 359 1890ft 0kts
01-Oct-18 12:37 34.135894 -115.944841 359 1890ft 0kts
01-Oct-18 12:38 34.135896 -115.944841 359 1890ft 0kts
01-Oct-18 12:39 34.135898 -115.944841 359 1890ft 0kts
01-Oct-18 12:40 34.135901 -115.944841 359 1890ft 0kts
01-Oct-18 12:41 34.135903 -115.944841 359 1890ft 0kts
01-Oct-18 12:42 34.135905 -115.944841 359 1890ft 0kts
01-Oct-18 12:43 34.135906 -115.944841 359 1890ft 0kts
01-Oct-18 12:44 34.135906 -115.944841 359 1890ft 0kts
01-Oct-18 12:45 34.135907 -115.944841 359 1890ft 0kts
01-Oct-18 12:46 34.135910 -115.944841 359 1890ft 0kts
01-Oct-18 12:47 34.135912 -115.944841 359 1890ft 0kts
01-Oct-18 12:48 34.135914 -115.944841 359 1890ft 0kts
01-Oct-18 12:49 34.135917 -115.944841 359 1890ft 0kts
01-Oct-18 12:50 34.135443 -115.944838 359 1890ft 2kts
01-Oct-18 12:51 34.135213 -115.946075 271 1890ft 11kts
01-Oct-18 12:52 34.135199 -115.949509 270 1890ft 8kts
01-Oct-18 12:53 34.135202 -115.951923 270 1890ft 5kts
01-Oct-18 12:54 34.135374 -115.953125 311 1890ft 0kts
01-Oct-18 12:55 34.135307 -115.953282 174 1890ft 0kts
01-Oct-18 12:56 34.135305 -115.953282 174 1890ft 0kts
01-Oct-18 12:57 34.135303 -115.953282 174 1890ft 0kts
01-Oct-18 12:58 34.135300 -115.953282 174 1890ft 0kts
01-Oct-18 12:59 34.135298 -115.953281 174 1890ft 0kts
01-Oct-18 13:00 34.135296 -115.953281 174 1890ft 0kts
01-Oct-18 13:01 34.135294 -115.953281 174 1890ft 0kts
01-Oct-18 13:02 34.135291 -115.953281 174 1890ft 0kts
01-Oct-18 13:03 34.135289 -115.953280 174 1890ft 0kts
01-Oct-18 13:04 34.135287 -115.953280 174 1890ft 0kts
01-Oct-18 13:05 34.135285 -115.953280 174 1890ft 0kts
01-Oct-18 13:06 34.135282 -115.953280 174 1890ft 0kts
01-Oct-18 13:07 34.134729 -115.953245 181 1890ft 3kts
01-Oct-18 13:08 34.134271 -115.939606 97 2384ft 120kts
01-Oct-18 13:09 34.127588 -115.884987 100 5377ft 197kts
01-Oct-18 13:10 34.117968 -115.813066 100 7770ft 239kts
01-Oct-18 13:11 34.075780 -115.782103 220 11266ft 207kts
01-Oct-18 13:12 34.031316 -115.832093 218 14811ft 240kts
01-Oct-18 13:13 33.967116 -115.887656 214 15942ft 330kts
01-Oct-18 13:14 33.883537 -115.955658 214 15953ft 384kts
01-Oct-18 13:15 33.792204 -116.029185 214 15947ft 403kts
01-Oct-18 13:16 33.697952 -116.105054 213 15893ft 410kts
01-Oct-18 13:17 33.603585 -116.182947 215 15875ft 413kts
01-Oct-18 13:18 33.510795 -116.264227 216 15880ft 413kts
01-Oct-18 13:19 33.417934 -116.345739 216 15972ft 411kts
01-Oct-18 13:20 33.325395 -116.426499 215 15997ft 412kts
01-Oct-18 13:21 33.232541 -116.507096 215 15987ft 413kts
01-Oct-18 13:22 33.138618 -116.578048 197 15966ft 338kts
01-Oct-18 13:23 33.062242 -116.593996 187 13649ft 250kts
01-Oct-18 13:24 32.997149 -116.600956 186 12070ft 232kts
01-Oct-18 13:25 32.932172 -116.614875 201 11992ft 235kts
01-Oct-18 13:26 32.871459 -116.642863 201 10785ft 229kts
01-Oct-18 13:27 32.813836 -116.672753 202 7791ft 223kts
01-Oct-18 13:28 32.758045 -116.702186 202 5282ft 206kts
01-Oct-18 13:29 32.707165 -116.728494 202 4952ft 195kts
01-Oct-18 13:30 32.669239 -116.766148 258 4973ft 192kts
01-Oct-18 13:31 32.663290 -116.830689 260 4954ft 198kts
01-Oct-18 13:32 32.661739 -116.894912 292 5192ft 186kts
01-Oct-18 13:33 32.676945 -116.955239 283 4137ft 200kts
01-Oct-18 13:34 32.690274 -117.011936 285 3207ft 160kts
01-Oct-18 13:35 32.701744 -117.058841 285 2594ft 132kts
01-Oct-18 13:36 32.712145 -117.100230 285 1932ft 122kts
01-Oct-18 13:37 32.720739 -117.137325 284 1175ft 119kts
01-Oct-18 13:38 32.729030 -117.171912 287 187ft 100kts
01-Oct-18 13:39 32.733965 -117.190036 333 18ft 9kts
01-Oct-18 13:40 32.734237 -117.188791 105 18ft 14kts
01-Oct-18 13:41 32.732972 -117.183430 105 18ft 18kts
01-Oct-18 13:42 32.731652 -117.177427 45 18ft 11kts
01-Oct-18 13:43 32.732547 -117.177104 16 18ft 0kts
01-Oct-18 13:44 32.732547 -117.177104 16 18ft 0kts
01-Oct-18 13:45 32.732547 -117.177104 16 18ft 0kts
01-Oct-18 13:46 32.732547 -117.177104 16 18ft 0kts
01-Oct-18 13:47 32.732547 -117.177104 16 18ft 0kts
01-Oct-18 13:48 32.732547 -117.177104 16 18ft 0kts
01-Oct-18 13:49 32.732547 -117.177104 16 18ft 0kts
01-Oct-18 13:50 32.732547 -117.177104 16 18ft 0kts
01-Oct-18 13:51 32.732547 -117.177104 16 18ft 0kts
01-Oct-18 13:52 32.732547 -117.177104 16 18ft 0kts
01-Oct-18 13:53 32.732547 -117.177104 16 18ft 0kts

Navigation Log

Ident Type
Flight plan parsing failed, navigation log unavailable